createdAt,value
2022-09-25T00:01:15.203Z,11.92
2022-09-25T00:06:19.531Z,11.93
2022-09-25T00:11:27.614Z,11.83
2022-09-25T00:16:30.734Z,11.94
2022-09-25T00:21:33.943Z,11.98
2022-09-25T00:26:38.813Z,11.99
2022-09-25T00:31:40.584Z,11.99
2022-09-25T00:36:42.271Z,11.99
2022-09-25T00:41:44.250Z,12.00
2022-09-25T00:46:45.893Z,11.99
2022-09-25T00:51:55.325Z,11.95
2022-09-25T00:57:00.307Z,11.86
2022-09-25T01:02:02.496Z,11.73
2022-09-25T01:07:04.364Z,11.74
2022-09-25T01:12:06.031Z,11.75
2022-09-25T01:17:21.205Z,11.75
2022-09-25T01:22:40.334Z,11.71
2022-09-25T01:27:44.870Z,11.72
2022-09-25T01:33:02.231Z,11.67
2022-09-25T01:38:31.333Z,11.66
2022-09-25T01:43:37.898Z,11.70
2022-09-25T01:48:43.202Z,11.75
2022-09-25T01:53:49.555Z,11.77
2022-09-25T01:58:58.808Z,11.76
2022-09-25T02:04:19.484Z,11.73
2022-09-25T02:09:33.982Z,11.79
2022-09-25T02:14:46.652Z,11.71
2022-09-25T02:20:06.981Z,11.74
2022-09-25T02:25:15.595Z,11.78
2022-09-25T02:30:17.450Z,11.85
2022-09-25T02:35:19.145Z,11.84
2022-09-25T02:40:27.005Z,11.87
2022-09-25T02:45:49.328Z,11.86
2022-09-25T02:51:04.626Z,11.88
2022-09-25T02:56:11.101Z,11.81
2022-09-25T03:01:15.806Z,11.77
2022-09-25T03:06:17.656Z,11.76
2022-09-25T03:11:21.338Z,11.79
2022-09-25T03:16:47.311Z,11.77
2022-09-25T03:21:51.116Z,11.77
2022-09-25T03:26:53.990Z,11.80
2022-09-25T03:31:55.706Z,11.83
2022-09-25T03:36:57.277Z,11.82
2022-09-25T03:41:58.879Z,11.79
2022-09-25T03:47:00.547Z,11.77
2022-09-25T03:52:02.528Z,11.78
2022-09-25T03:57:04.159Z,11.86
2022-09-25T04:02:05.989Z,11.81
2022-09-25T04:07:08.672Z,11.76
2022-09-25T04:12:11.261Z,11.71
2022-09-25T04:17:12.842Z,11.74
2022-09-25T04:22:14.732Z,11.66
2022-09-25T04:27:19.317Z,11.64
2022-09-25T04:32:39.832Z,11.62
2022-09-25T04:37:41.545Z,11.57
2022-09-25T04:42:43.722Z,11.55
2022-09-25T04:47:45.423Z,11.57
2022-09-25T04:52:47.481Z,11.62
2022-09-25T04:58:00.098Z,11.59
2022-09-25T05:03:04.098Z,11.66
2022-09-25T05:08:06.092Z,11.63
2022-09-25T05:13:09.523Z,11.60
2022-09-25T05:18:19.970Z,11.63
2022-09-25T05:23:22.276Z,11.61
2022-09-25T05:28:24.928Z,11.69
2022-09-25T05:33:26.521Z,11.69
2022-09-25T05:38:29.689Z,11.77
2022-09-25T05:43:31.943Z,11.79
2022-09-25T05:48:33.646Z,11.75
2022-09-25T05:53:35.421Z,11.82
2022-09-25T05:58:37.235Z,11.83
2022-09-25T06:03:38.922Z,11.84
2022-09-25T06:08:40.577Z,11.86
2022-09-25T06:13:48.558Z,11.85
2022-09-25T06:18:53.618Z,11.86
2022-09-25T06:23:55.916Z,11.84
2022-09-25T06:29:03.056Z,11.90
2022-09-25T06:34:12.449Z,11.98
2022-09-25T06:39:14.063Z,11.99
2022-09-25T06:44:15.790Z,12.06
2022-09-25T06:49:17.445Z,12.19
2022-09-25T06:54:19.159Z,12.35
2022-09-25T06:59:20.799Z,12.43
2022-09-25T07:04:22.637Z,12.46
2022-09-25T07:09:24.333Z,12.36
2022-09-25T07:14:25.921Z,12.40
2022-09-25T07:19:27.957Z,12.37
2022-09-25T07:24:29.827Z,12.37
2022-09-25T07:29:31.565Z,12.34
2022-09-25T07:34:35.801Z,12.32
2022-09-25T07:39:37.436Z,12.38
2022-09-25T07:44:42.382Z,12.35
2022-09-25T07:49:47.003Z,12.31
2022-09-25T07:54:48.643Z,12.36
2022-09-25T07:59:50.231Z,12.38
2022-09-25T08:04:51.894Z,12.39
2022-09-25T08:09:54.524Z,12.46
2022-09-25T08:14:56.205Z,12.57
2022-09-25T08:19:59.373Z,12.88
2022-09-25T08:25:03.361Z,13.35
2022-09-25T08:30:06.056Z,13.43
2022-09-25T08:35:08.079Z,13.52
2022-09-25T08:40:18.164Z,13.46
2022-09-25T08:45:51.043Z,13.98
2022-09-25T08:50:53.329Z,14.57
2022-09-25T08:56:26.340Z,14.82
2022-09-25T09:01:36.338Z,14.93
2022-09-25T09:06:40.156Z,15.35
2022-09-25T09:11:49.122Z,15.73
2022-09-25T09:16:59.781Z,15.72
2022-09-25T09:22:10.889Z,15.94
2022-09-25T09:27:34.900Z,16.51
2022-09-25T09:32:53.883Z,16.36
2022-09-25T09:38:14.988Z,16.14
2022-09-25T09:43:43.967Z,16.26
2022-09-25T09:49:00.662Z,15.73
2022-09-25T09:54:13.240Z,15.54
2022-09-25T09:59:19.497Z,15.15
2022-09-25T10:04:26.401Z,14.90
2022-09-25T10:09:28.446Z,14.77
2022-09-25T10:14:37.187Z,14.75
2022-09-25T10:19:48.942Z,14.77
2022-09-25T10:25:01.991Z,14.83
2022-09-25T10:30:09.582Z,14.89
2022-09-25T10:35:19.954Z,15.43
2022-09-25T10:40:35.141Z,16.11
2022-09-25T10:45:37.083Z,16.68
2022-09-25T10:50:38.717Z,16.65
2022-09-25T10:55:51.428Z,17.01
2022-09-25T11:00:55.958Z,16.93
2022-09-25T11:06:10.837Z,16.50
2022-09-25T11:11:14.200Z,16.23
2022-09-25T11:16:16.412Z,16.07
2022-09-25T11:21:26.881Z,16.63
2022-09-25T11:26:37.728Z,16.32
2022-09-25T11:31:52.054Z,15.89
2022-09-25T11:37:06.288Z,15.50
2022-09-25T11:42:28.546Z,15.28
2022-09-25T11:47:53.715Z,15.20
2022-09-25T11:53:15.082Z,15.07
2022-09-25T11:58:25.400Z,15.12
2022-09-25T12:03:49.111Z,15.08
2022-09-25T12:09:07.771Z,15.61
2022-09-25T12:14:21.647Z,16.04
2022-09-25T12:19:40.029Z,16.51
2022-09-25T12:25:26.337Z,17.02
2022-09-25T12:30:38.859Z,17.47
2022-09-25T12:35:57.635Z,16.99
2022-09-25T12:41:05.938Z,16.34
2022-09-25T12:46:37.660Z,16.54
2022-09-25T12:51:51.417Z,16.96
2022-09-25T12:57:10.556Z,17.32
2022-09-25T13:02:16.956Z,17.46
2022-09-25T13:07:29.374Z,17.65
2022-09-25T13:12:35.135Z,17.84
2022-09-25T13:17:37.942Z,17.98
2022-09-25T13:22:41.858Z,17.82
2022-09-25T13:27:46.297Z,17.67
2022-09-25T13:32:50.937Z,17.53
2022-09-25T13:37:57.373Z,17.22
2022-09-25T13:43:18.416Z,17.17
2022-09-25T13:48:32.059Z,17.21
2022-09-25T13:54:00.283Z,17.16
2022-09-25T13:59:03.932Z,16.80
2022-09-25T14:04:15.008Z,16.75
2022-09-25T14:09:23.344Z,16.83
2022-09-25T14:14:33.859Z,16.58
2022-09-25T14:19:40.643Z,16.62
2022-09-25T14:24:45.321Z,16.52
2022-09-25T14:29:47.025Z,16.46
2022-09-25T14:35:04.840Z,16.41
2022-09-25T14:40:33.823Z,16.52
2022-09-25T14:46:20.244Z,16.63
2022-09-25T14:51:26.492Z,16.84
2022-09-25T14:56:34.153Z,16.81
2022-09-25T15:01:37.878Z,16.75
2022-09-25T15:06:40.654Z,16.80
2022-09-25T15:11:43.635Z,16.85
2022-09-25T15:17:04.341Z,16.69
2022-09-25T15:22:18.873Z,16.67
2022-09-25T15:27:22.637Z,16.62
2022-09-25T15:32:39.720Z,16.43
2022-09-25T15:37:41.805Z,16.14
2022-09-25T15:42:48.251Z,16.10
2022-09-25T15:47:53.215Z,15.97
2022-09-25T15:52:58.768Z,15.89
2022-09-25T15:58:15.471Z,15.85
2022-09-25T16:03:41.098Z,15.74
2022-09-25T16:08:43.106Z,15.70
2022-09-25T16:13:48.799Z,15.65
2022-09-25T16:19:00.281Z,15.59
2022-09-25T16:24:06.544Z,15.54
2022-09-25T16:29:18.208Z,15.45
2022-09-25T16:34:34.271Z,15.40
2022-09-25T16:39:38.498Z,15.35
2022-09-25T16:44:46.946Z,15.28
2022-09-25T16:49:49.456Z,15.27
2022-09-25T16:54:56.876Z,15.20
2022-09-25T16:59:59.097Z,15.14
2022-09-25T17:05:08.065Z,15.14
2022-09-25T17:10:13.070Z,15.13
2022-09-25T17:15:23.760Z,15.00
2022-09-25T17:20:27.317Z,14.98
2022-09-25T17:25:48.166Z,14.91
2022-09-25T17:30:49.915Z,14.90
2022-09-25T17:35:59.145Z,14.85
2022-09-25T17:41:06.938Z,14.83
2022-09-25T17:46:09.471Z,14.78
2022-09-25T17:51:18.084Z,14.71
2022-09-25T17:56:20.102Z,14.68
2022-09-25T18:01:23.641Z,14.62
2022-09-25T18:06:27.211Z,14.59
2022-09-25T18:11:28.853Z,14.54
2022-09-25T18:16:32.364Z,14.52
2022-09-25T18:21:52.928Z,14.49
2022-09-25T18:26:56.555Z,14.45
2022-09-25T18:31:59.191Z,14.47
2022-09-25T18:37:00.824Z,14.43
2022-09-25T18:42:02.519Z,14.33
2022-09-25T18:47:04.249Z,14.06
2022-09-25T18:52:06.011Z,13.84
2022-09-25T18:57:08.982Z,13.64
2022-09-25T19:02:27.772Z,13.69
2022-09-25T19:07:29.534Z,13.69
2022-09-25T19:12:33.229Z,13.69
2022-09-25T19:17:35.774Z,13.47
2022-09-25T19:22:37.517Z,13.30
2022-09-25T19:27:40.790Z,13.21
2022-09-25T19:32:42.430Z,13.25
2022-09-25T19:37:44.035Z,13.25
2022-09-25T19:42:46.881Z,13.24
2022-09-25T19:47:49.035Z,13.29
2022-09-25T19:52:51.391Z,13.21
2022-09-25T19:57:53.193Z,13.00
2022-09-25T20:02:54.887Z,13.06
2022-09-25T20:07:56.675Z,12.95
2022-09-25T20:12:58.425Z,12.93
2022-09-25T20:18:00.527Z,12.88
2022-09-25T20:23:02.238Z,12.98
2022-09-25T20:28:03.791Z,12.79
2022-09-25T20:33:05.385Z,12.76
2022-09-25T20:38:10.900Z,12.91
2022-09-25T20:43:12.612Z,12.75
2022-09-25T20:48:18.007Z,12.75
2022-09-25T20:53:19.697Z,12.93
2022-09-25T20:58:21.273Z,12.99
2022-09-25T21:03:22.838Z,13.08
2022-09-25T21:08:25.840Z,13.11
2022-09-25T21:13:32.212Z,13.15
2022-09-25T21:18:35.796Z,13.17
2022-09-25T21:23:37.540Z,13.18
2022-09-25T21:28:40.941Z,13.23
2022-09-25T21:33:43.623Z,13.24
2022-09-25T21:38:45.392Z,13.20
2022-09-25T21:43:47.210Z,13.21
2022-09-25T21:49:00.727Z,13.22
2022-09-25T21:54:02.755Z,13.30
2022-09-25T21:59:08.853Z,13.31
2022-09-25T22:04:13.524Z,13.29
2022-09-25T22:09:16.834Z,13.33
2022-09-25T22:14:20.001Z,13.31
2022-09-25T22:19:29.910Z,13.32
2022-09-25T22:24:31.660Z,13.32
2022-09-25T22:29:35.812Z,13.36
2022-09-25T22:34:37.490Z,13.35
2022-09-25T22:39:39.217Z,13.39
2022-09-25T22:44:40.829Z,13.45
2022-09-25T22:49:42.428Z,13.40
2022-09-25T22:54:44.012Z,13.37
2022-09-25T22:59:45.623Z,13.40
2022-09-25T23:04:49.455Z,13.36
2022-09-25T23:09:51.081Z,13.39
2022-09-25T23:14:53.999Z,13.41
2022-09-25T23:19:55.667Z,13.38
2022-09-25T23:24:57.367Z,13.40
2022-09-25T23:29:59.011Z,13.45
2022-09-25T23:35:01.251Z,13.38
2022-09-25T23:40:15.786Z,13.41
2022-09-25T23:45:17.777Z,13.45
2022-09-25T23:50:19.459Z,13.43
2022-09-25T23:55:21.064Z,13.38
